Погода Толкаюкана неделю

Идальго, Мексика

23 - 29 февраля
  • 23февраля
    Сегодня
    +9°
    +28°
    Облачно с прояснениями
    ВремяПогодаТемператураВлажностьДавлениеВетер, м/сВероятность осадков
    00:00Ясно и безоблачно+15°C44 %581 мм2.3 м/с2 %
    03:00Ясно и безоблачно+11°C38 %579 мм1.1 м/с2 %
    06:00Ясно и безоблачно+9°C42 %578 мм1.2 м/с2 %
    09:00Ясно и безоблачно+14°C29 %582 мм1.2 м/с2 %
    12:00Небольшая облачность+23°C13 %585 мм0.4 м/с2 %
    15:00Облачно с прояснениями+27°C10 %584 мм1.7 м/с2 %
    18:00Небольшая облачность+23°C47 %583 мм5.8 м/с3 %
    21:00Практически безоблачно+15°C84 %583 мм2.2 м/с10 %
  • 24февраля
    Суббота
    +8°
    +27°
    Небольшая облачность
    ВремяПогодаТемператураВлажностьДавлениеВетер, м/сВероятность осадков
    00:00Небольшая облачность+15°C93 %584 мм1.7 м/с8 %
    03:00Облачно с прояснениями+11°C90 %582 мм1.0 м/с6 %
    06:00Небольшая облачность+10°C86 %582 мм0.9 м/с6 %
    09:00Практически безоблачно+11°C76 %584 мм1.4 м/с3 %
    12:00Практически безоблачно+21°C38 %586 мм0.3 м/с2 %
    15:00Небольшая облачность+26°C23 %586 мм2.9 м/с3 %
    18:00Небольшая облачность+23°C47 %585 мм5.5 м/с3 %
    21:00Ясно и безоблачно+16°C82 %584 мм2.5 м/с3 %
  • 25февраля
    Воскресенье
    +10°
    +28°
    Ясно и безоблачно
    ВремяПогодаТемператураВлажностьДавлениеВетер, м/сВероятность осадков
    00:00Небольшая облачность+13°C91 %584 мм0.9 м/с3 %
    03:00Небольшая облачность+11°C82 %582 мм1.0 м/с2 %
    06:00Ясно и безоблачно+10°C76 %581 мм0.8 м/с2 %
    09:00Небольшая облачность+13°C54 %584 мм0.7 м/с2 %
    12:00Ясно и безоблачно+24°C16 %587 мм0.7 м/с2 %
    15:00Ясно и безоблачно+27°C12 %586 мм4.7 м/с2 %
    18:00Ясно и безоблачно+24°C22 %586 мм6.5 м/с2 %
    21:00Ясно и безоблачно+18°C32 %585 мм2.4 м/с2 %
  • 26февраля
    Понедельник
    +11°
    +28°
    Ясно и безоблачно
    ВремяПогодаТемператураВлажностьДавлениеВетер, м/сВероятность осадков
    00:00Ясно и безоблачно+19°C29 %586 мм0.3 м/с2 %
    03:00Ясно и безоблачно+13°C32 %583 мм1.0 м/с2 %
    06:00Ясно и безоблачно+11°C34 %582 мм1.5 м/с2 %
    09:00Ясно и безоблачно+14°C22 %584 мм0.9 м/с2 %
    12:00Ясно и безоблачно+24°C9 %587 мм1.8 м/с2 %
    15:00Ясно и безоблачно+28°C7 %586 мм1.3 м/с2 %
    18:00Ясно и безоблачно+25°C18 %585 мм6.2 м/с2 %
    21:00Ясно и безоблачно+18°C20 %584 мм3.5 м/с2 %
  • 27февраля
    Вторник
    +12°
    +29°
    Ясно и безоблачно
    ВремяПогодаТемператураВлажностьДавлениеВетер, м/сВероятность осадков
    00:00Ясно и безоблачно+18°C18 %583 мм2.6 м/с2 %
    03:00Ясно и безоблачно+13°C21 %580 мм1.6 м/с2 %
    06:00Ясно и безоблачно+13°C24 %581 мм1.1 м/с2 %
    09:00Ясно и безоблачно+15°C20 %583 мм0.6 м/с2 %
    12:00Ясно и безоблачно+25°C14 %586 мм0.9 м/с2 %
    15:00Ясно и безоблачно+28°C9 %585 мм1.1 м/с2 %
    18:00Ясно и безоблачно+28°C11 %584 мм3.8 м/с2 %
    21:00Ясно и безоблачно+19°C21 %583 мм2.6 м/с2 %
Мы используем cookies
Соглашаюсь